Time;durP1;ratioP1;P1;durP2;ratioP2;P2;SDS_P1;SDS_P2;PMS_P1;PMS_P2;Temp;Humidity;BMP_temperature;BMP_pressure;BME280_temperature;BME280_humidity;BME280_pressure;Samples;Min_cycle;Max_cycle;Signal;HPM_P1;HPM_P2
2022/04/26 03:36:20;;;;;;;15.32;4.85;;;;;;;11.83;64.15;99032.56;4997204;28;20108;-70
2022/04/26 03:38:47;;;;;;;27.25;5.63;;;;;;;11.87;63.60;99033.50;4994366;28;20401;-70
2022/04/26 03:41:16;;;;;;;24.33;5.93;;;;;;;12.10;63.37;99041.38;4978737;28;20092;-70
2022/04/26 03:43:42;;;;;;;23.20;4.95;;;;;;;12.16;63.81;99041.94;5001941;28;20041;-71
2022/04/26 03:46:07;;;;;;;24.48;4.32;;;;;;;11.89;63.68;99033.13;4984658;28;20072;-71
2022/04/26 03:48:33;;;;;;;14.52;3.92;;;;;;;11.84;63.77;99045.41;4992541;28;20158;-71
2022/04/26 03:51:01;;;;;;;21.30;4.38;;;;;;;12.01;62.86;99054.69;4985566;28;20022;-71
2022/04/26 03:53:27;;;;;;;19.25;4.63;;;;;;;12.03;62.25;99049.56;4993980;28;20409;-70
2022/04/26 03:55:52;;;;;;;10.20;3.88;;;;;;;12.11;62.19;99054.22;5004843;28;20054;-71
2022/04/26 03:58:18;;;;;;;14.85;4.60;;;;;;;12.16;62.13;99058.78;4993163;28;20026;-72
2022/04/26 04:00:43;;;;;;;16.15;4.00;;;;;;;12.23;62.23;99058.97;5003623;28;20052;-70
2022/04/26 04:03:09;;;;;;;14.95;3.63;;;;;;;12.57;61.92;99064.34;4997623;28;20033;-70
2022/04/26 04:05:35;;;;;;;27.17;14.23;;;;;;;12.87;61.09;99070.34;4995631;28;20023;-71
2022/04/26 04:08:01;;;;;;;22.23;10.93;;;;;;;13.13;59.88;99076.59;4989816;28;20109;-70
2022/04/26 04:10:26;;;;;;;15.82;4.53;;;;;;;12.48;61.28;99084.94;4995462;28;20042;-71
2022/04/26 04:12:52;;;;;;;13.35;5.22;;;;;;;12.07;63.22;99081.34;4988871;28;20034;-71
2022/04/26 04:15:17;;;;;;;12.93;4.43;;;;;;;11.92;64.05;99061.25;4994479;28;20030;-71
2022/04/26 04:17:43;;;;;;;17.52;5.18;;;;;;;12.24;63.67;99082.22;4990570;28;20030;-70
2022/04/26 04:20:10;;;;;;;20.48;5.20;;;;;;;12.55;63.30;99084.31;4999210;28;20030;-71
2022/04/26 04:22:35;;;;;;;22.65;6.22;;;;;;;12.94;62.57;99082.94;5008138;28;20512;-72
2022/04/26 04:25:01;;;;;;;21.67;7.38;;;;;;;13.19;61.99;99094.81;4990449;28;20041;-72
2022/04/26 04:27:26;;;;;;;14.13;5.63;;;;;;;13.05;61.98;99098.91;5008303;28;20037;-71
2022/04/26 04:29:52;;;;;;;14.25;4.68;;;;;;;12.77;62.91;99096.94;4986482;28;20433;-71
2022/04/26 04:32:18;;;;;;;12.45;4.57;;;;;;;12.95;62.57;99092.97;4994906;28;20246;-71
2022/04/26 04:34:44;;;;;;;18.13;4.90;;;;;;;13.19;62.03;99101.25;4991975;28;20030;-71
2022/04/26 04:37:10;;;;;;;16.50;4.32;;;;;;;13.44;60.65;99106.69;4993277;28;20042;-71
2022/04/26 04:39:36;;;;;;;14.52;3.67;;;;;;;13.70;60.47;99096.06;4999798;28;20520;-72
2022/04/26 04:42:02;;;;;;;12.15;4.80;;;;;;;14.01;60.03;99092.38;4998758;28;20030;-72
2022/04/26 04:44:27;;;;;;;7.75;3.88;;;;;;;13.88;59.31;99096.50;4986349;28;20030;-72
2022/04/26 04:46:54;;;;;;;25.10;4.50;;;;;;;13.72;59.49;99096.53;4979825;28;20030;-72
2022/04/26 04:49:20;;;;;;;12.73;4.50;;;;;;;13.75;60.92;99101.41;4999870;28;20121;-74
2022/04/26 04:51:45;;;;;;;14.85;4.97;;;;;;;13.57;61.17;99101.81;4989643;28;20688;-72
2022/04/26 04:54:11;;;;;;;16.45;4.85;;;;;;;13.52;62.45;99098.47;4991284;28;20026;-73
2022/04/26 04:56:36;;;;;;;26.67;6.32;;;;;;;13.61;63.31;99105.50;4991475;28;20022;-73
2022/04/26 04:59:03;;;;;;;14.52;4.78;;;;;;;13.69;62.90;99108.50;4992429;28;20033;-73
2022/04/26 05:01:28;;;;;;;14.65;4.72;;;;;;;13.69;63.44;99102.88;4990962;28;20104;-73
2022/04/26 05:03:54;;;;;;;12.40;4.55;;;;;;;13.79;63.99;99110.75;4991848;28;20026;-73
2022/04/26 05:06:20;;;;;;;15.40;4.40;;;;;;;14.04;63.08;99116.13;4991613;28;20049;-73
2022/04/26 05:08:46;;;;;;;21.75;5.05;;;;;;;14.19;62.60;99120.09;5004788;28;20061;-72
2022/04/26 05:11:12;;;;;;;8.05;3.20;;;;;;;14.38;60.49;99118.47;4995462;28;20026;-73
2022/04/26 05:13:38;;;;;;;14.30;5.03;;;;;;;14.30;60.64;99120.31;5001136;28;20029;-74
2022/04/26 05:16:04;;;;;;;19.48;5.55;;;;;;;14.56;59.78;99132.91;5003863;28;20068;-73
2022/04/26 05:18:30;;;;;;;14.32;4.40;;;;;;;14.70;59.13;99133.19;4993242;28;20487;-72
2022/04/26 05:20:55;;;;;;;15.95;6.10;;;;;;;14.90;58.93;99133.22;5010756;28;20033;-71
2022/04/26 05:26:06;;;;;;;26.48;7.38;;;;;;;14.94;58.07;99125.63;4994896;28;20073;-71
2022/04/26 05:28:31;;;;;;;16.15;6.85;;;;;;;15.09;57.22;99134.38;4994564;28;20030;-71
2022/04/26 05:30:57;;;;;;;15.07;6.90;;;;;;;15.37;57.03;99133.25;5003046;28;20030;-71
2022/04/26 05:33:26;;;;;;;9.90;5.10;;;;;;;15.53;56.69;99125.47;5008705;28;20416;-71
2022/04/26 05:35:52;;;;;;;17.92;4.70;;;;;;;15.63;56.15;99128.84;5014063;28;20026;-71
2022/04/26 05:38:17;;;;;;;16.77;4.05;;;;;;;15.69;55.19;99130.16;5007073;28;20138;-70
2022/04/26 05:40:44;;;;;;;18.88;4.63;;;;;;;15.80;53.76;99122.66;5013168;28;20528;-71
2022/04/26 05:43:10;;;;;;;9.40;2.85;;;;;;;15.78;54.08;99127.06;4996717;28;20033;-71
2022/04/26 05:45:36;;;;;;;15.43;3.40;;;;;;;15.92;52.72;99124.50;4977694;28;20038;-72
2022/04/26 05:48:03;;;;;;;11.23;2.58;;;;;;;15.87;52.30;99127.63;4995310;28;20054;-73
2022/04/26 05:50:28;;;;;;;17.27;3.13;;;;;;;16.02;53.25;99137.13;4994308;28;20034;-72
2022/04/26 05:52:54;;;;;;;9.93;3.60;;;;;;;16.12;53.18;99136.47;5009674;28;20033;-73
2022/04/26 05:55:20;;;;;;;9.55;2.88;;;;;;;16.06;52.51;99135.19;4993306;28;20027;-73
2022/04/26 05:57:45;;;;;;;6.82;2.08;;;;;;;16.18;53.08;99130.53;4987523;28;20056;-74
2022/04/26 06:00:13;;;;;;;22.63;4.22;;;;;;;16.28;52.24;99136.28;5013563;28;20022;-75
2022/04/26 06:02:40;;;;;;;12.43;3.38;;;;;;;16.30;51.33;99137.91;4987806;28;20443;-76
2022/04/26 06:05:05;;;;;;;21.38;4.20;;;;;;;16.28;52.43;99141.94;4995264;28;20117;-77
2022/04/26 06:07:31;;;;;;;18.58;8.35;;;;;;;16.13;51.50;99143.75;5009829;28;20065;-76
2022/04/26 06:09:57;;;;;;;15.73;6.32;;;;;;;16.34;51.90;99130.31;4974202;28;20034;-75
2022/04/26 06:12:26;;;;;;;13.05;4.28;;;;;;;16.65;50.72;99129.13;4995427;28;20030;-78
2022/04/26 06:14:53;;;;;;;15.27;2.95;;;;;;;16.73;47.83;99120.72;4998532;28;20479;-74
2022/04/26 06:17:19;;;;;;;13.05;2.75;;;;;;;16.80;47.59;99132.09;4979568;28;20049;-73
2022/04/26 06:19:45;;;;;;;11.20;3.22;;;;;;;17.03;47.59;99128.34;5002540;28;20732;-73
2022/04/26 06:22:10;;;;;;;14.85;3.13;;;;;;;17.09;47.74;99126.78;5005564;28;20076;-73
2022/04/26 06:24:35;;;;;;;21.08;3.45;;;;;;;17.07;45.46;99127.16;4991050;28;20018;-72
2022/04/26 06:27:02;;;;;;;15.65;3.08;;;;;;;17.21;47.20;99123.69;4983516;28;20057;-71
2022/04/26 06:29:28;;;;;;;15.65;2.60;;;;;;;17.23;47.09;99124.09;4996556;28;20033;-71
2022/04/26 06:31:54;;;;;;;16.48;2.50;;;;;;;17.18;46.79;99115.16;5002255;28;20084;-71
2022/04/26 06:34:19;;;;;;;8.95;2.83;;;;;;;16.90;47.69;99124.94;5001890;28;20026;-71
2022/04/26 06:36:45;;;;;;;15.88;3.40;;;;;;;16.90;47.83;99122.94;5002886;28;20085;-70
2022/04/26 06:39:10;;;;;;;11.98;3.65;;;;;;;17.07;48.52;99129.19;5006597;28;20022;-71
2022/04/26 06:41:36;;;;;;;18.63;4.45;;;;;;;17.17;49.34;99119.19;4994082;28;20023;-71
2022/04/26 06:44:02;;;;;;;9.48;2.65;;;;;;;17.39;48.11;99125.88;5003987;28;20033;-72
2022/04/26 06:46:28;;;;;;;7.32;2.53;;;;;;;17.36;48.63;99118.97;5002401;28;20080;-73
2022/04/26 06:48:58;;;;;;;9.63;3.25;;;;;;;17.41;48.44;99126.28;4987971;28;20440;-71
2022/04/26 06:51:24;;;;;;;16.77;3.55;;;;;;;17.37;48.73;99122.59;4989106;28;20652;-72
2022/04/26 06:53:51;;;;;;;17.20;3.17;;;;;;;17.65;49.03;99121.25;4994561;28;20042;-71
2022/04/26 06:56:16;;;;;;;19.30;2.70;;;;;;;17.86;48.18;99119.75;4993114;28;20042;-71
2022/04/26 06:58:42;;;;;;;5.70;3.28;;;;;;;17.60;49.03;99113.94;5003078;28;20033;-75
2022/04/26 07:01:07;;;;;;;6.78;3.05;;;;;;;17.83;47.69;99113.69;4995463;28;20523;-74
2022/04/26 07:03:33;;;;;;;10.57;2.72;;;;;;;18.08;48.60;99117.94;4993784;28;20025;-74
2022/04/26 07:05:59;;;;;;;10.75;3.83;;;;;;;17.98;49.31;99115.81;4998477;28;20090;-74
2022/04/26 07:08:24;;;;;;;14.45;3.60;;;;;;;18.14;48.30;99124.81;4981385;28;20127;-74
2022/04/26 07:10:50;;;;;;;15.35;2.90;;;;;;;18.22;48.63;99111.53;4997757;28;20108;-73
2022/04/26 07:13:18;;;;;;;17.70;3.78;;;;;;;18.05;48.71;99118.72;4991097;28;20045;-74
2022/04/26 07:15:44;;;;;;;16.00;3.83;;;;;;;18.40;48.69;99122.13;4991023;28;20041;-73
2022/04/26 07:18:12;;;;;;;33.63;3.83;;;;;;;18.37;49.56;99118.06;4987034;28;20033;-72
2022/04/26 07:20:38;;;;;;;10.45;2.92;;;;;;;18.33;49.44;99122.91;4989759;28;20412;-73
2022/04/26 07:23:04;;;;;;;8.57;2.40;;;;;;;18.62;49.01;99108.88;4989405;28;20030;-73
2022/04/26 07:25:29;;;;;;;16.17;3.45;;;;;;;18.57;49.44;99100.78;4997634;28;20121;-73
2022/04/26 07:27:55;;;;;;;14.27;3.42;;;;;;;19.02;49.72;99109.84;5003363;28;20034;-72
2022/04/26 07:30:20;;;;;;;17.77;4.90;;;;;;;19.14;49.24;99113.53;5000244;28;20117;-72
2022/04/26 07:35:29;;;;;;;10.88;3.67;;;;;;;19.19;48.39;99110.28;4996359;28;20107;-72
2022/04/26 07:38:07;;;;;;;13.02;3.90;;;;;;;18.80;47.91;99118.25;4996706;28;20053;-72
2022/04/26 07:40:33;;;;;;;12.63;3.90;;;;;;;19.17;47.01;99124.84;5000548;28;20049;-72
2022/04/26 07:43:00;;;;;;;12.43;4.18;;;;;;;19.15;47.76;99113.09;4981616;28;20087;-72
2022/04/26 07:45:25;;;;;;;20.83;3.97;;;;;;;19.48;48.27;99116.78;4991874;28;20117;-71
2022/04/26 07:47:51;;;;;;;20.52;3.95;;;;;;;19.29;48.30;99109.47;4996068;28;20121;-71
2022/04/26 07:50:18;;;;;;;18.48;3.50;;;;;;;19.33;47.72;99118.00;4991611;28;20059;-72
2022/04/26 07:52:44;;;;;;;12.77;4.32;;;;;;;19.16;47.06;99114.72;5004632;28;20057;-73
2022/04/26 07:55:10;;;;;;;14.02;4.80;;;;;;;19.25;46.39;99114.34;5011073;28;20060;-71
2022/04/26 07:57:38;;;;;;;15.73;4.03;;;;;;;19.35;46.57;99112.72;5008235;28;20125;-72
2022/04/26 08:00:05;;;;;;;12.15;2.92;;;;;;;19.80;45.76;99115.16;4986047;28;20022;-71
2022/04/26 08:02:31;;;;;;;29.98;4.53;;;;;;;19.92;46.89;99111.09;4998979;28;20080;-71
2022/04/26 08:05:01;;;;;;;14.18;3.50;;;;;;;20.17;45.22;99110.25;4998567;28;20461;-71
2022/04/26 08:07:28;;;;;;;16.15;3.75;;;;;;;20.44;45.32;99106.94;4988210;28;20018;-70
2022/04/26 08:09:55;;;;;;;18.08;3.75;;;;;;;20.60;46.30;99114.97;4993807;28;20089;-71
2022/04/26 08:12:20;;;;;;;14.05;3.65;;;;;;;20.69;45.85;99106.81;4988237;28;20072;-71
2022/04/26 08:14:46;;;;;;;14.45;3.58;;;;;;;21.13;46.51;99100.91;5004219;28;20678;-72
2022/04/26 08:17:14;;;;;;;22.55;3.50;;;;;;;21.65;45.09;99108.66;4991613;28;20069;-71
2022/04/26 08:19:39;;;;;;;14.20;3.63;;;;;;;21.61;45.58;99102.19;4991720;28;20022;-74
2022/04/26 08:22:06;;;;;;;11.43;3.05;;;;;;;21.92;44.52;99096.63;4993825;28;20509;-71
2022/04/26 08:27:30;;;;;;;22.02;4.07;;;;;;;21.80;44.90;99114.22;4997247;28;20049;-74
2022/04/26 08:29:57;;;;;;;12.52;2.72;;;;;;;22.28;41.84;99104.78;4995601;28;20022;-73
2022/04/26 08:32:26;;;;;;;17.23;3.42;;;;;;;22.53;40.94;99117.97;4984760;28;20504;-71
2022/04/26 08:34:53;;;;;;;17.45;3.80;;;;;;;22.62;39.88;99113.78;5008795;28;20444;-70
2022/04/26 08:37:19;;;;;;;13.85;3.05;;;;;;;22.75;38.87;99114.84;4993265;28;20074;-72
2022/04/26 08:39:44;;;;;;;18.20;2.80;;;;;;;22.37;38.23;99117.72;4981222;28;20528;-71
2022/04/26 08:42:10;;;;;;;11.85;3.10;;;;;;;22.44;39.83;99101.34;4970905;28;20119;-72
2022/04/26 08:44:36;;;;;;;13.80;2.65;;;;;;;22.80;38.93;99102.94;4996948;28;20041;-71
2022/04/26 08:52:50;;;;;;;9.18;2.22;;;;;;;23.19;37.82;99109.34;4977659;28;20033;-72
2022/04/26 08:55:16;;;;;;;10.63;2.58;;;;;;;22.98;37.85;99104.75;4983917;28;20034;-75
2022/04/26 08:57:42;;;;;;;15.27;3.22;;;;;;;23.21;37.58;99101.16;4988552;28;20496;-74
2022/04/26 09:00:11;;;;;;;17.38;3.10;;;;;;;23.41;38.37;99095.59;4976487;28;20092;-71
2022/04/26 09:02:38;;;;;;;11.15;2.85;;;;;;;23.56;34.69;99098.19;4974016;28;20137;-72
2022/04/26 09:05:14;;;;;;;15.38;2.70;;;;;;;23.74;36.51;99091.38;4984270;28;20116;-71
2022/04/26 09:07:45;;;;;;;12.68;3.50;;;;;;;23.84;36.69;99096.09;4985795;28;20046;-73
2022/04/26 09:10:19;;;;;;;12.65;2.80;;;;;;;23.96;36.52;99089.72;4983718;28;21053;-72
2022/04/26 09:13:08;;;;;;;11.27;2.70;;;;;;;23.75;34.88;99093.78;4980361;28;20448;-70
2022/04/26 09:15:45;;;;;;;12.65;2.88;;;;;;;23.67;35.90;99087.41;4986610;28;20059;-73
2022/04/26 09:18:13;;;;;;;11.38;2.78;;;;;;;23.77;36.34;99084.78;4983780;28;20065;-73
2022/04/26 09:20:39;;;;;;;13.95;3.63;;;;;;;23.85;35.26;99089.13;4974272;28;20031;-74
2022/04/26 09:23:14;;;;;;;15.35;2.95;;;;;;;23.89;35.07;99081.31;4974760;28;20038;-72
2022/04/26 09:25:40;;;;;;;11.32;2.70;;;;;;;24.12;35.39;99085.38;4990183;28;20410;-71
2022/04/26 09:28:07;;;;;;;7.43;2.78;;;;;;;23.69;34.79;99073.50;4983351;28;20100;-72
2022/04/26 09:30:33;;;;;;;16.75;3.33;;;;;;;23.18;36.56;99084.13;4973909;28;20421;-69
2022/04/26 09:32:59;;;;;;;16.85;3.13;;;;;;;23.93;37.37;99069.81;4980651;28;20045;-70
2022/04/26 09:35:29;;;;;;;13.05;3.22;;;;;;;24.10;37.25;99065.03;4982124;28;20050;-70
2022/04/26 09:37:55;;;;;;;16.00;3.33;;;;;;;24.39;36.10;99067.31;4995916;28;20059;-71
2022/04/26 09:40:21;;;;;;;14.57;3.65;;;;;;;24.20;35.91;99061.16;4977021;28;20037;-71
2022/04/26 09:42:50;;;;;;;13.27;3.10;;;;;;;24.46;36.09;99069.22;4983863;28;20065;-72
2022/04/26 09:45:16;;;;;;;18.27;3.58;;;;;;;24.52;35.51;99061.72;4977837;28;20026;-71
2022/04/26 09:47:44;;;;;;;15.45;3.60;;;;;;;24.71;34.70;99053.59;4982929;28;20022;-71
2022/04/26 09:50:12;;;;;;;16.50;3.45;;;;;;;24.88;35.21;99058.13;4976061;28;20121;-71
2022/04/26 09:52:39;;;;;;;15.38;3.00;;;;;;;24.93;33.34;99039.63;4977275;28;20072;-74
2022/04/26 09:55:06;;;;;;;14.98;2.97;;;;;;;25.05;35.54;99046.72;4977962;28;20041;-72
2022/04/26 09:57:32;;;;;;;15.77;4.25;;;;;;;24.74;33.75;99041.25;4980423;28;20094;-71
2022/04/26 10:00:00;;;;;;;19.80;3.42;;;;;;;24.81;34.31;99041.94;4978179;28;20030;-72
2022/04/26 10:02:32;;;;;;;6.57;2.80;;;;;;;25.02;33.35;99044.72;4984187;28;20434;-74
2022/04/26 10:05:04;;;;;;;11.38;2.75;;;;;;;25.06;32.24;99042.59;4979987;28;20022;-71
2022/04/26 10:07:35;;;;;;;8.77;2.85;;;;;;;25.08;31.79;99046.59;4972912;28;20111;-71
2022/04/26 10:10:03;;;;;;;11.63;2.67;;;;;;;25.17;33.66;99042.34;4974899;28;20031;-72
2022/04/26 10:12:31;;;;;;;6.25;2.15;;;;;;;25.22;32.21;99030.38;4989058;28;20031;-71
2022/04/26 10:14:58;;;;;;;11.55;2.55;;;;;;;25.24;30.28;99030.72;4975114;28;20022;-72
2022/04/26 10:17:23;;;;;;;10.02;2.42;;;;;;;25.36;32.19;99035.72;4990750;28;20473;-71
2022/04/26 10:19:49;;;;;;;11.00;2.30;;;;;;;25.42;31.55;99032.31;4992034;28;20088;-71
2022/04/26 10:22:17;;;;;;;5.07;1.45;;;;;;;25.30;32.04;99034.63;4988484;28;20077;-71
2022/04/26 10:25:08;;;;;;;6.57;2.20;;;;;;;25.44;32.14;99029.81;4989360;28;20030;-71
2022/04/26 10:27:34;;;;;;;5.80;2.35;;;;;;;25.54;31.19;99025.88;4986988;28;20493;-72
2022/04/26 10:30:00;;;;;;;10.10;2.20;;;;;;;25.71;31.99;99020.16;4976465;28;20028;-72
2022/04/26 10:32:38;;;;;;;6.35;1.63;;;;;;;25.79;32.13;99019.50;4996368;28;20110;-72
2022/04/26 10:35:24;;;;;;;12.38;2.53;;;;;;;25.94;31.80;99027.69;4991585;28;20026;-71
2022/04/26 10:38:12;;;;;;;8.95;2.03;;;;;;;26.10;30.84;99026.84;4976394;28;20054;-72
2022/04/26 10:41:03;;;;;;;16.90;1.80;;;;;;;25.79;30.48;99028.09;4990086;28;20041;-70
2022/04/26 10:43:29;;;;;;;13.63;1.90;;;;;;;25.63;29.87;99017.47;4976959;28;20046;-72
2022/04/26 10:46:15;;;;;;;11.35;1.70;;;;;;;25.61;30.57;99022.84;4991704;28;20041;-71
2022/04/26 10:48:42;;;;;;;12.30;2.45;;;;;;;25.47;30.70;99026.06;4982984;28;20029;-73
2022/04/26 10:51:31;;;;;;;6.10;1.90;;;;;;;25.58;31.50;99018.03;4973155;28;20069;-71
2022/04/26 10:53:56;;;;;;;9.95;1.60;;;;;;;25.86;31.80;99020.56;4977772;28;20067;-71
2022/04/26 10:56:22;;;;;;;12.07;2.80;;;;;;;26.03;31.65;99019.25;4973411;28;20041;-73
2022/04/26 10:58:53;;;;;;;7.88;1.70;;;;;;;25.88;31.94;99010.25;4977096;28;20089;-73
2022/04/26 11:01:23;;;;;;;11.32;2.97;;;;;;;25.84;30.45;99012.44;4981778;28;20034;-75
2022/04/26 11:03:56;;;;;;;7.85;1.67;;;;;;;26.08;30.80;98994.97;4972039;28;20027;-74
2022/04/26 11:06:37;;;;;;;10.68;2.60;;;;;;;25.80;30.12;99003.13;4974654;28;20121;-73
2022/04/26 11:09:16;;;;;;;11.35;2.03;;;;;;;26.01;28.45;99009.50;4990315;28;20034;-73
2022/04/26 11:11:55;;;;;;;5.22;1.60;;;;;;;26.19;29.33;99004.09;4980749;28;20516;-72
2022/04/26 11:14:22;;;;;;;3.40;1.58;;;;;;;25.71;29.30;98994.38;4973465;28;20034;-72
2022/04/26 11:17:00;;;;;;;6.15;1.27;;;;;;;25.98;31.10;98994.03;4973216;28;20485;-73
2022/04/26 11:19:36;;;;;;;7.18;2.00;;;;;;;26.24;30.33;98990.47;4976770;28;20076;-71
2022/04/26 11:22:10;;;;;;;5.47;1.88;;;;;;;26.04;29.31;98986.50;4980491;28;20514;-71
2022/04/26 11:30:07;;;;;;;14.65;3.33;;;;;;;25.96;29.46;98978.56;4973068;28;20101;-72
2022/04/26 11:32:35;;;;;;;3.13;1.90;;;;;;;26.08;29.57;98980.66;4978999;28;20034;-72
2022/04/26 11:35:02;;;;;;;14.43;2.40;;;;;;;25.54;29.38;98977.22;4972571;28;20022;-71
2022/04/26 11:37:29;;;;;;;6.97;1.92;;;;;;;25.77;30.15;98972.53;4985320;28;20047;-71
2022/04/26 11:39:54;;;;;;;20.10;2.67;;;;;;;25.92;30.56;98967.19;4988089;28;20053;-73
2022/04/26 11:42:20;;;;;;;7.10;1.77;;;;;;;25.96;29.47;98961.38;4992697;28;20941;-72
2022/04/26 11:44:56;;;;;;;8.18;1.15;;;;;;;25.88;30.44;98970.16;4997992;28;20030;-72
2022/04/26 11:47:41;;;;;;;10.38;2.33;;;;;;;25.91;30.06;98954.13;4999106;28;20118;-73
2022/04/26 11:50:15;;;;;;;15.43;2.88;;;;;;;25.83;29.93;98961.31;4996227;28;20458;-73
2022/04/26 11:52:45;;;;;;;13.93;1.80;;;;;;;25.48;30.88;98950.38;4998342;28;20643;-71
2022/04/26 11:55:31;;;;;;;11.48;2.05;;;;;;;25.57;30.92;98953.41;4994612;28;20026;-71
2022/04/26 11:58:20;;;;;;;6.28;1.98;;;;;;;25.56;30.91;98946.09;4990365;28;20551;-71
2022/04/26 12:00:57;;;;;;;8.27;1.95;;;;;;;25.53;31.00;98941.28;5003001;28;20110;-71
2022/04/26 12:03:30;;;;;;;13.23;2.72;;;;;;;24.99;32.13;98956.94;4986855;28;20150;-71
2022/04/26 12:06:02;;;;;;;7.72;1.63;;;;;;;25.26;31.79;98950.94;5001849;28;20026;-71
2022/04/26 12:08:29;;;;;;;9.70;1.83;;;;;;;25.13;30.52;98947.22;4989476;28;20049;-70
2022/04/26 12:11:23;;;;;;;10.90;2.15;;;;;;;24.95;31.18;98939.88;4997865;28;20105;-71
2022/04/26 12:14:06;;;;;;;10.30;2.20;;;;;;;25.07;31.79;98936.28;5001429;28;20033;-73
2022/04/26 12:16:36;;;;;;;9.80;2.60;;;;;;;25.26;30.64;98939.50;4997422;28;20033;-72
2022/04/26 12:19:03;;;;;;;7.45;1.83;;;;;;;25.45;31.00;98934.91;5003868;28;20034;-72
2022/04/26 12:21:43;;;;;;;13.85;2.35;;;;;;;25.70;32.16;98926.91;5010122;28;20033;-73
2022/04/26 12:24:13;;;;;;;18.30;2.95;;;;;;;25.50;32.69;98902.09;5010752;28;20022;-73
2022/04/26 12:26:54;;;;;;;5.90;2.75;;;;;;;25.42;33.33;98912.09;5013516;28;20123;-72
2022/04/26 12:29:21;;;;;;;5.03;1.80;;;;;;;25.49;33.21;98906.22;5010484;28;20228;-74
2022/04/26 12:31:47;;;;;;;10.35;2.22;;;;;;;25.29;33.74;98903.47;5009991;28;20113;-74
2022/04/26 12:34:23;;;;;;;16.25;2.42;;;;;;;25.20;32.56;98902.06;5004542;28;20034;-73
2022/04/26 12:37:26;;;;;;;4.85;1.95;;;;;;;25.44;33.05;98896.09;5009290;28;20049;-74
2022/04/26 12:40:00;;;;;;;13.27;3.15;;;;;;;25.57;32.61;98895.38;4994974;28;20026;-74
2022/04/26 12:42:28;;;;;;;14.07;2.05;;;;;;;25.46;31.70;98881.31;4991592;28;20038;-73
2022/04/26 12:44:59;;;;;;;18.13;2.30;;;;;;;25.53;32.41;98883.22;4995741;28;20072;-73
2022/04/26 12:50:38;;;;;;;13.40;2.03;;;;;;;25.50;30.81;98876.34;4995302;28;20093;-74
2022/04/26 12:53:08;;;;;;;11.00;1.90;;;;;;;25.52;32.12;98882.41;5001234;28;20121;-74
2022/04/26 12:55:36;;;;;;;11.18;2.60;;;;;;;25.51;31.79;98886.53;4999491;28;20141;-73
2022/04/26 12:58:12;;;;;;;11.48;2.15;;;;;;;25.63;31.59;98868.59;4995222;28;20026;-75
2022/04/26 13:00:52;;;;;;;15.63;2.35;;;;;;;25.49;31.63;98843.25;4994929;28;20026;-74
2022/04/26 13:03:21;;;;;;;8.15;3.05;;;;;;;25.55;30.68;98875.00;4996306;28;20041;-73
2022/04/26 13:06:03;;;;;;;14.75;1.92;;;;;;;25.70;31.09;98866.75;4995529;28;20026;-75
2022/04/26 13:08:29;;;;;;;10.25;2.78;;;;;;;25.69;30.79;98868.03;5001366;28;20465;-73
2022/04/26 13:10:54;;;;;;;6.60;2.05;;;;;;;25.54;31.26;98868.44;5002109;28;20075;-73
2022/04/26 13:13:20;;;;;;;12.10;2.15;;;;;;;25.47;31.03;98871.50;5003090;28;20037;-76
2022/04/26 13:15:46;;;;;;;15.43;2.58;;;;;;;25.50;31.76;98873.47;5004640;28;20504;-76
2022/04/26 13:18:15;;;;;;;8.63;2.00;;;;;;;25.74;30.68;98873.22;5010837;28;20018;-74
2022/04/26 13:20:43;;;;;;;11.27;2.60;;;;;;;25.74;31.17;98876.06;4989671;28;20069;-72
2022/04/26 13:23:09;;;;;;;10.07;2.15;;;;;;;25.70;31.03;98870.44;5011978;28;20061;-72
2022/04/26 13:25:35;;;;;;;14.05;2.75;;;;;;;25.53;29.79;98863.97;4994361;28;20026;-70
2022/04/26 13:28:03;;;;;;;8.43;2.45;;;;;;;25.61;30.26;98873.16;4991895;28;20025;-73
2022/04/26 13:30:29;;;;;;;7.50;1.92;;;;;;;25.58;30.08;98868.34;5006357;28;20017;-73
2022/04/26 13:32:55;;;;;;;8.35;2.30;;;;;;;25.69;29.79;98859.44;4993903;28;20534;-72
2022/04/26 13:35:21;;;;;;;12.85;2.72;;;;;;;25.82;30.19;98857.41;5010703;28;20860;-71
2022/04/26 13:37:47;;;;;;;14.55;2.05;;;;;;;25.67;29.91;98867.69;5000346;28;20077;-72
2022/04/26 13:40:12;;;;;;;12.95;2.85;;;;;;;25.60;29.66;98860.91;4993062;28;20105;-70
2022/04/26 13:42:39;;;;;;;17.05;2.63;;;;;;;25.37;29.96;98877.06;4999772;28;20103;-72
2022/04/26 13:45:06;;;;;;;12.48;1.95;;;;;;;25.50;30.31;98864.88;4985383;28;20033;-71
2022/04/26 13:47:33;;;;;;;6.05;2.70;;;;;;;25.52;29.49;98865.25;4996415;28;20101;-70
2022/04/26 13:49:59;;;;;;;10.15;2.08;;;;;;;25.43;29.69;98870.78;4988865;28;20099;-69
2022/04/26 13:52:25;;;;;;;18.35;2.70;;;;;;;25.37;29.89;98868.47;4995767;28;20059;-70
2022/04/26 13:54:51;;;;;;;17.95;2.70;;;;;;;25.23;30.58;98866.81;5002921;28;20026;-70
2022/04/26 13:57:17;;;;;;;9.55;3.40;;;;;;;25.23;30.47;98860.28;4998325;28;20034;-70
2022/04/26 13:59:46;;;;;;;9.30;3.13;;;;;;;25.29;31.55;98869.13;4999994;28;20018;-70
2022/04/26 14:02:12;;;;;;;10.00;1.83;;;;;;;25.30;29.97;98865.81;5003613;28;20052;-70
2022/04/26 14:04:38;;;;;;;4.43;1.73;;;;;;;25.00;30.47;98865.00;5003135;28;20026;-70
2022/04/26 14:07:04;;;;;;;11.32;2.28;;;;;;;24.94;31.05;98876.16;5005615;28;20040;-70
2022/04/26 14:09:30;;;;;;;7.68;2.25;;;;;;;24.78;31.54;98879.84;4999679;28;20057;-70
2022/04/26 14:11:56;;;;;;;8.98;2.80;;;;;;;24.77;31.90;98880.28;5005378;28;20034;-70
2022/04/26 14:22:38;;;;;;;7.53;2.35;;;;;;;25.16;31.57;98880.50;5001271;28;20110;-70
2022/04/26 14:25:08;;;;;;;8.10;2.17;;;;;;;25.20;31.53;98876.31;5000608;28;20130;-70
2022/04/26 14:27:35;;;;;;;8.35;3.90;;;;;;;25.36;31.64;98880.38;5005054;28;20036;-70
2022/04/26 14:30:03;;;;;;;18.30;2.88;;;;;;;25.15;31.07;98868.25;4992758;28;20036;-70
2022/04/26 14:32:29;;;;;;;21.77;3.42;;;;;;;24.92;31.66;98875.81;4987758;28;20060;-70
2022/04/26 14:34:54;;;;;;;11.48;2.42;;;;;;;24.70;31.80;98878.38;5008357;28;20059;-70
2022/04/26 14:37:22;;;;;;;13.85;2.40;;;;;;;24.52;32.25;98881.66;5007288;28;20081;-70
2022/04/26 14:39:48;;;;;;;13.30;2.40;;;;;;;24.25;33.10;98897.00;5003958;28;20477;-71
2022/04/26 14:42:14;;;;;;;5.88;2.35;;;;;;;24.25;33.04;98897.81;4995954;28;20120;-70
2022/04/26 14:44:39;;;;;;;11.25;2.63;;;;;;;24.28;33.38;98906.75;5010788;28;20551;-70
2022/04/26 14:47:06;;;;;;;11.18;2.58;;;;;;;24.06;33.26;98899.44;4992582;28;20029;-70
2022/04/26 14:49:35;;;;;;;13.05;2.85;;;;;;;24.05;33.32;98903.53;5009840;28;20037;-70
2022/04/26 14:52:01;;;;;;;9.95;2.67;;;;;;;24.16;33.16;98894.75;5011081;28;20119;-70
2022/04/26 14:54:28;;;;;;;5.50;2.80;;;;;;;24.47;32.99;98893.66;5006072;28;20030;-70
2022/04/26 14:56:54;;;;;;;9.18;2.63;;;;;;;24.28;33.01;98896.09;4990099;28;20040;-70
2022/04/26 14:59:22;;;;;;;14.45;3.58;;;;;;;24.05;33.55;98902.75;5010587;28;20032;-70
2022/04/26 15:01:49;;;;;;;8.80;2.60;;;;;;;23.87;35.21;98906.75;5011295;28;20057;-70
2022/04/26 15:04:23;;;;;;;12.98;3.10;;;;;;;23.59;37.05;98914.66;4995198;28;20452;-70
2022/04/26 15:06:50;;;;;;;20.25;3.85;;;;;;;23.43;38.50;98906.81;4992218;28;20042;-73
2022/04/26 15:17:30;;;;;;;10.20;2.95;;;;;;;23.32;40.51;98923.34;4998485;28;20040;-71
2022/04/26 15:19:56;;;;;;;15.13;4.85;;;;;;;23.07;39.65;98938.81;5006625;28;20403;-71
2022/04/26 15:22:23;;;;;;;11.57;3.25;;;;;;;22.78;39.24;98945.81;5009104;28;20030;-71
2022/04/26 15:24:50;;;;;;;12.43;2.72;;;;;;;22.83;39.78;98955.91;5010056;28;20038;-71
2022/04/26 15:27:18;;;;;;;8.80;3.40;;;;;;;22.93;40.07;98966.34;5001422;28;20105;-71
2022/04/26 15:29:44;;;;;;;10.98;2.72;;;;;;;22.71;38.87;98971.59;5001135;28;20469;-71
2022/04/26 15:32:11;;;;;;;4.80;2.47;;;;;;;22.61;38.32;98975.41;4995296;28;20030;-71
2022/04/26 15:34:37;;;;;;;18.92;3.35;;;;;;;22.33;40.29;98981.03;5006843;28;20037;-71
2022/04/26 15:37:03;;;;;;;7.80;2.92;;;;;;;22.23;40.49;98974.25;5010713;28;20096;-71
2022/04/26 15:39:29;;;;;;;8.52;3.17;;;;;;;21.87;42.27;98969.00;5002455;28;20085;-71
2022/04/26 15:41:55;;;;;;;11.75;3.95;;;;;;;21.79;43.48;98976.81;5000118;28;20485;-71
2022/04/26 15:44:21;;;;;;;13.40;3.30;;;;;;;21.79;44.24;98976.00;4988379;28;20057;-71
2022/04/26 15:46:48;;;;;;;7.00;3.20;;;;;;;21.60;45.31;98978.22;4987110;28;20120;-71